createdAt,value
2022-08-20T00:01:06.106Z,91.1
2022-08-20T00:07:06.110Z,91.9
2022-08-20T00:13:06.102Z,92.6
2022-08-20T00:19:06.108Z,91.4
2022-08-20T00:25:06.137Z,90.9
2022-08-20T00:31:06.125Z,90.1
2022-08-20T00:37:06.136Z,89.8
2022-08-20T00:43:06.152Z,93.8
2022-08-20T00:49:06.131Z,94.1
2022-08-20T00:55:06.134Z,94
2022-08-20T01:01:06.142Z,95.7
2022-08-20T01:07:06.138Z,98.1
2022-08-20T01:13:06.144Z,99.7
2022-08-20T01:19:06.128Z,100
2022-08-20T01:25:06.147Z,100
2022-08-20T01:31:06.139Z,100
2022-08-20T01:37:06.172Z,100
2022-08-20T01:43:06.162Z,100
2022-08-20T01:49:06.154Z,100
2022-08-20T01:55:06.153Z,100
2022-08-20T02:01:06.241Z,100
2022-08-20T02:07:06.178Z,100
2022-08-20T02:13:06.141Z,100
2022-08-20T02:19:06.145Z,100
2022-08-20T02:25:06.143Z,100
2022-08-20T02:31:06.161Z,100
2022-08-20T02:37:06.150Z,100
2022-08-20T02:43:06.144Z,100
2022-08-20T02:49:06.159Z,100
2022-08-20T02:55:06.191Z,100
2022-08-20T03:01:06.281Z,100
2022-08-20T03:07:06.167Z,100
2022-08-20T03:13:06.175Z,100
2022-08-20T03:19:06.154Z,100
2022-08-20T03:25:06.169Z,100
2022-08-20T03:31:06.151Z,100
2022-08-20T03:37:06.154Z,100
2022-08-20T03:43:06.186Z,100
2022-08-20T03:49:06.197Z,100
2022-08-20T03:55:06.179Z,100
2022-08-20T04:01:06.258Z,100
2022-08-20T04:07:06.155Z,100
2022-08-20T04:13:06.173Z,100
2022-08-20T04:19:06.155Z,100
2022-08-20T04:25:06.164Z,100
2022-08-20T04:31:06.201Z,100
2022-08-20T04:37:06.190Z,100
2022-08-20T04:43:06.188Z,100
2022-08-20T04:49:06.236Z,100
2022-08-20T04:55:06.194Z,100
2022-08-20T05:01:06.231Z,100
2022-08-20T05:07:06.178Z,100
2022-08-20T05:13:06.188Z,100
2022-08-20T05:19:06.212Z,100
2022-08-20T05:25:06.240Z,100
2022-08-20T05:31:06.291Z,100
2022-08-20T05:37:06.209Z,100
2022-08-20T05:43:06.209Z,100
2022-08-20T05:49:06.270Z,100
2022-08-20T05:55:06.206Z,100
2022-08-20T06:01:06.302Z,100
2022-08-20T06:07:06.205Z,100
2022-08-20T06:13:06.198Z,100
2022-08-20T06:19:06.182Z,100
2022-08-20T06:25:06.222Z,100
2022-08-20T06:31:06.182Z,100
2022-08-20T06:37:06.198Z,100
2022-08-20T06:43:06.195Z,100
2022-08-20T06:49:06.224Z,100
2022-08-20T06:55:06.229Z,100
2022-08-20T07:01:09.741Z,100
2022-08-20T07:07:06.224Z,100
2022-08-20T07:13:06.212Z,100
2022-08-20T07:19:06.221Z,100
2022-08-20T07:25:06.203Z,100
2022-08-20T07:31:13.448Z,100
2022-08-20T07:37:06.231Z,100
2022-08-20T07:43:06.233Z,100
2022-08-20T07:49:06.227Z,100
2022-08-20T07:55:06.239Z,98.7
2022-08-20T08:01:06.333Z,96.8
2022-08-20T08:07:06.219Z,96
2022-08-20T08:13:06.231Z,95.8
2022-08-20T08:19:06.214Z,93.9
2022-08-20T08:25:06.226Z,84.9
2022-08-20T08:31:06.229Z,83
2022-08-20T08:37:06.206Z,76.7
2022-08-20T08:43:06.234Z,75.2
2022-08-20T08:49:06.233Z,81.4
2022-08-20T08:55:06.218Z,81.2
2022-08-20T09:01:09.685Z,56
2022-08-20T09:07:06.219Z,61.5
2022-08-20T09:13:06.246Z,59.8
2022-08-20T09:19:06.252Z,68.1
2022-08-20T09:25:08.928Z,69.5
2022-08-20T09:31:06.495Z,74.8
2022-08-20T09:37:06.241Z,69
2022-08-20T09:43:06.260Z,64.3
2022-08-20T09:49:06.260Z,68.2
2022-08-20T09:55:06.262Z,59.2
2022-08-20T10:01:06.282Z,66.1
2022-08-20T10:07:06.261Z,54.3
2022-08-20T10:13:06.283Z,49.2
2022-08-20T10:19:06.273Z,48.2
2022-08-20T10:25:08.740Z,59.7
2022-08-20T10:31:06.276Z,63
2022-08-20T10:37:06.277Z,50.3
2022-08-20T10:43:06.273Z,44.8
2022-08-20T10:49:06.265Z,41.2
2022-08-20T10:55:06.302Z,53.2
2022-08-20T11:01:06.287Z,57.3
2022-08-20T11:07:06.279Z,57.8
2022-08-20T11:13:06.282Z,51.7
2022-08-20T11:19:06.289Z,56.1
2022-08-20T11:25:06.284Z,57.6
2022-08-20T11:31:06.304Z,56.9
2022-08-20T11:37:06.282Z,55.1
2022-08-20T11:43:15.137Z,54.8
2022-08-20T11:49:06.343Z,53.1
2022-08-20T11:55:06.312Z,49.2
2022-08-20T12:01:06.339Z,49.8
2022-08-20T12:07:06.282Z,48.9
2022-08-20T12:13:06.285Z,53
2022-08-20T12:19:06.525Z,51.5
2022-08-20T12:25:06.295Z,52.7
2022-08-20T12:31:06.310Z,52.8
2022-08-20T12:37:06.317Z,50.6
2022-08-20T12:43:06.279Z,51.3
2022-08-20T12:49:06.300Z,56.4
2022-08-20T12:55:06.298Z,53.3
2022-08-20T13:01:06.325Z,55.8
2022-08-20T13:07:06.311Z,52.3
2022-08-20T13:13:06.318Z,55.4
2022-08-20T13:19:06.325Z,57.5
2022-08-20T13:25:06.335Z,59.1
2022-08-20T13:31:06.338Z,59.8
2022-08-20T13:37:06.296Z,57.2
2022-08-20T13:43:07.577Z,57
2022-08-20T13:49:06.317Z,54.8
2022-08-20T13:55:06.408Z,50.6
2022-08-20T14:01:06.404Z,48.9
2022-08-20T14:07:06.329Z,51.3
2022-08-20T14:13:06.308Z,51.9
2022-08-20T14:19:06.344Z,53.5
2022-08-20T14:25:06.400Z,53.6
2022-08-20T14:31:06.328Z,54.8
2022-08-20T14:37:06.397Z,57.1
2022-08-20T14:43:06.341Z,57.1
2022-08-20T14:49:06.346Z,52.8
2022-08-20T14:55:06.355Z,52.9
2022-08-20T15:01:06.434Z,53.2
2022-08-20T15:07:08.126Z,52.4
2022-08-20T15:13:06.332Z,50.1
2022-08-20T15:19:06.352Z,49.3
2022-08-20T15:25:06.361Z,48
2022-08-20T15:31:06.362Z,49
2022-08-20T15:37:06.366Z,47.1
2022-08-20T15:43:06.373Z,46
2022-08-20T15:49:06.358Z,45.3
2022-08-20T15:55:06.356Z,45.7
2022-08-20T16:01:24.519Z,46.2
2022-08-20T16:07:06.347Z,46.3
2022-08-20T16:13:06.339Z,46.7
2022-08-20T16:19:06.374Z,48
2022-08-20T16:25:06.369Z,47.2
2022-08-20T16:31:06.366Z,46.5
2022-08-20T16:37:06.357Z,44.3
2022-08-20T16:43:06.384Z,43.5
2022-08-20T16:49:06.375Z,43.5
2022-08-20T16:55:06.376Z,43.6
2022-08-20T17:01:06.420Z,42.3
2022-08-20T17:07:08.033Z,43.4
2022-08-20T17:13:06.387Z,42.5
2022-08-20T17:19:06.379Z,43
2022-08-20T17:25:06.389Z,41.8
2022-08-20T17:31:06.381Z,42.9
2022-08-20T17:37:06.377Z,42
2022-08-20T17:43:06.384Z,42.2
2022-08-20T17:49:06.467Z,42
2022-08-20T17:55:06.388Z,42.1
2022-08-20T18:01:08.178Z,42.8
2022-08-20T18:07:06.393Z,43.3
2022-08-20T18:13:06.398Z,44
2022-08-20T18:19:06.414Z,44.2
2022-08-20T18:25:06.419Z,44.9
2022-08-20T18:31:06.396Z,45.8
2022-08-20T18:37:06.413Z,46.4
2022-08-20T18:43:06.406Z,47.1
2022-08-20T18:49:06.411Z,46.9
2022-08-20T18:55:06.410Z,47.6
2022-08-20T19:01:06.453Z,48.8
2022-08-20T19:07:06.392Z,48.6
2022-08-20T19:13:06.478Z,48.8
2022-08-20T19:19:06.454Z,49.2
2022-08-20T19:25:06.415Z,49.3
2022-08-20T19:31:06.427Z,50.8
2022-08-20T19:37:10.008Z,51.3
2022-08-20T19:43:06.426Z,51.2
2022-08-20T19:49:06.435Z,52.6
2022-08-20T19:55:06.413Z,52.6
2022-08-20T20:01:06.449Z,52.3
2022-08-20T20:07:06.412Z,52
2022-08-20T20:13:06.414Z,52
2022-08-20T20:19:25.961Z,53
2022-08-20T20:25:06.443Z,53
2022-08-20T20:31:06.435Z,53.6
2022-08-20T20:37:06.433Z,53.6
2022-08-20T20:43:06.428Z,54.4
2022-08-20T20:49:06.429Z,54.6
2022-08-20T20:55:06.424Z,55.2
2022-08-20T21:01:06.488Z,57.1
2022-08-20T21:07:06.430Z,57.5
2022-08-20T21:13:06.446Z,58.5
2022-08-20T21:19:06.463Z,58.3
2022-08-20T21:25:06.467Z,58
2022-08-20T21:31:06.497Z,58.2
2022-08-20T21:37:06.447Z,58.2
2022-08-20T21:43:06.484Z,56.6
2022-08-20T21:49:06.436Z,57.4
2022-08-20T21:55:06.494Z,57.1
2022-08-20T22:01:06.479Z,58.9
2022-08-20T22:07:06.577Z,58.2
2022-08-20T22:13:06.440Z,58.9
2022-08-20T22:19:06.462Z,60.6
2022-08-20T22:25:06.437Z,63.1
2022-08-20T22:31:06.442Z,64.7
2022-08-20T22:37:06.476Z,64
2022-08-20T22:43:06.438Z,62.7
2022-08-20T22:49:06.450Z,64.1
2022-08-20T22:55:06.456Z,63.5
2022-08-20T23:01:06.473Z,62.6
2022-08-20T23:07:06.476Z,63.2
2022-08-20T23:13:06.490Z,63.1
2022-08-20T23:19:06.444Z,63.5
2022-08-20T23:25:06.464Z,64.3
2022-08-20T23:31:06.477Z,64.9
2022-08-20T23:37:06.476Z,66
2022-08-20T23:43:06.499Z,66.6
2022-08-20T23:49:06.465Z,67.9
2022-08-20T23:55:06.458Z,68.7
